Tiempo atmosférico en la estación meteorológica de Sabiñanigo, Huesca (775 m.)



Fecha
DESCASC
Temp. máxima en grados centígrados (hora)
DESCASC
Temp. mínima en grados centígrados (hora)
DESCASC
Temp. media en grados centígrados
DESCASC
Racha de viento máxima en m/sg (hora)
DESCASC
Velocidad máxima media en intervalos de 10 minutos(hora)
DESCASC
Precipitaciones diarias en mm
DESCASC
Precipitaciones de 00:00 a 06:00 en mm
DESCASC
Precipitaciones de 06:00 a 12:00 en mm
DESCASC
Precipitaciones de 12:00 a 18:00 en mm
DESCASC
Precipitaciones de 18:00 a 24:00 en mm
DESCASC
31-05-2020 27.7 (15:30) 11.9 (06:10) 19.8 11.11 (18:30) 5.83 (18:30) 7.2 0 0 0 7.2
30-05-2020 27.2 (17:00) 11.3 (07:10) 19.3 5.28 (23:00) 2.78 (20:50) 0 0 0 0 0
29-05-2020 28 (17:00) 10.8 (06:40) 19.4 5.56 (21:50) 2.78 (19:20) 0 0 0 0 0
28-05-2020 26.4 (17:00) 11.7 (00:00) 19 7.5 (20:20) 4.72 (20:30) 0 0 0 0 0
27-05-2020 24.6 (12:10) 14.9 (00:00) 19.8 7.78 (13:40) 4.17 (20:00) 19.4 0 0 0 19.4
26-05-2020 26.2 (17:40) 13 (00:00) 19.6 6.94 (20:00) 3.61 (20:00) 0 0 0 0 0
25-05-2020 24.4 (18:20) 15.3 (00:00) 19.8 11.67 (21:20) 4.72 (21:20) 19.4 0 0.2 0 19.2
24-05-2020 25.8 (17:10) 10.3 (00:00) 18 5 (18:00) 3.61 (13:10) 0 0 0 0 0
23-05-2020 26.4 (16:00) 14.1 (00:00) 20.3 9.72 (19:40) 5 (19:40) 0 0 0 0 0
22-05-2020 30.6 (16:00) 10.8 (00:00) 20.7 2.78 (19:00) 2.22 (19:00) 0 0 0 0 0
21-05-2020 28.6 (17:10) 10.5 (00:00) 19.6 4.17 (19:10) 3.06 (15:50) 0 0 0 0 0
20-05-2020 28.1 (17:10) 6.8 (00:00) 17.5 6.11 (18:40) 3.33 (18:50) 0 0 0 0 0
19-05-2020 27.7 (17:00) 5.7 (00:00) 16.7 8.33 (19:40) 4.44 (19:40) 0 0 0 0 0
18-05-2020 25 (16:10) 5.1 (00:00) 15 9.17 (19:10) 5 (19:10) 0 0 0 0 0
17-05-2020 22.8 (17:20) 5.4 (00:00) 14.1 7.78 (19:50) 4.72 (19:30) 0 0 0 0 0
16-05-2020 19.4 (15:50) 9.1 (00:00) 14.3 7.78 (15:40) 4.44 (18:00) 0 0 0 0 0
15-05-2020 18 (14:10) 9.1 (00:00) 13.6 4.17 (02:30) 2.5 (14:40) 12.6 0 0 8.8 3.8
14-05-2020 18.1 (14:20) 7.2 (00:00) 12.7 6.94 (12:20) 3.61 (12:00) 7.4 0 0 7 0.4
13-05-2020 17.5 (19:50) 7.8 (00:00) 12.7 7.78 (14:30) 4.17 (16:10) 9.8 9.4 0 0.2 0.2
12-05-2020 20.9 (15:10) 7 (00:00) 13.9 6.11 (17:40) 3.89 (17:40) 1 0 0 0 1
11-05-2020 17.3 (18:10) 9.5 (00:00) 13.4 11.67 (16:30) 5.83 (17:30) 1 0 1 0 0
10-05-2020 16.2 (00:40) 8 (00:00) 12.1 11.39 (12:00) 6.39 (10:50) 66.4 4 48.8 8.6 5
09-05-2020 24.6 (16:20) 11.9 (00:00) 18.3 13.89 (06:00) 5.83 (06:10) 2.4 0 2.4 0 0
08-05-2020 26.4 (17:10) 11.6 (00:00) 19 8.61 (11:10) 4.44 (12:30) 0 0 0 0 0
07-05-2020 26.4 (17:50) 9.7 (00:00) 18 8.61 (23:40) 4.17 (23:30) 0 0 0 0 0
06-05-2020 26.1 (17:30) 6.5 (00:00) 16.3 7.22 (18:10) 3.33 (19:10) 0 0 0 0 0
05-05-2020 24.6 (13:30) 11.5 (00:00) 18.1 7.5 (00:20) 3.89 (16:00) 0 0 0 0 0
04-05-2020 30 (15:30) 10.3 (00:00) 20.2 14.17 (20:40) 3.61 (20:50) 0 0 0 0 0
03-05-2020 26.4 (18:40) 6.7 (00:00) 16.5 4.17 (20:00) 2.78 (19:10) 0 0 0 0 0

Gráficas

Temp. máximas Temp. mínimas Temp. medias Precipitaciones Rachas de viento máximas Velocidades máximas media en intervalos de 10 minutos

Datos horarios

Fecha y hora oficial Temperatura (ºC) Velocidad del viento (km/h) Dirección del viento Racha (km/h) Dirección de racha Precipitación (mm) Presión (hPa) Tendencia (hPa) Humedad (%)
2020-06-01 23:00:00 16 2 Noroeste 8 Noroeste 0 -- -- 83
2020-06-01 22:00:00 17.4 3 Noroeste 10 Norte 0 -- -- 80
2020-06-01 21:00:00 18.8 4 Norte 14 Norte 0 -- -- 74
2020-06-01 20:00:00 19.9 7 Noroeste 20 Norte 0 -- -- 69
2020-06-01 19:00:00 19.9 12 Norte 32 Nordeste 0 -- -- 64
2020-06-01 18:00:00 20.1 18 Norte 31 Nordeste 0 -- -- 64
2020-06-01 17:00:00 19.7 7 Sur 24 Oeste 0 -- -- 71
2020-06-01 16:00:00 21.5 11 Sudoeste 22 Oeste 0 -- -- 60
2020-06-01 15:00:00 23.2 5 Sudoeste 13 Sudeste 0 -- -- 49
2020-06-01 14:00:00 22 5 Sur 12 Sudeste 0 -- -- 57
2020-06-01 13:00:00 20.7 4 Este 9 Sudeste 0 -- -- 60
2020-06-01 12:00:00 16.9 0 Calma 5 Este 0 -- -- 77
2020-06-01 11:00:00 14.3 2 Este 7 Nordeste 0.4 -- -- 89
2020-06-01 10:00:00 13.4 0 Calma 5 Sudoeste 0 -- -- 87
2020-06-01 09:00:00 12.5 3 Este 6 Este 0 -- -- 92
2020-06-01 08:00:00 11.8 0 Calma 3 Norte 0 -- -- 90
2020-06-01 07:00:00 11 0 Calma 7 Sur 0 -- -- 91
2020-06-01 06:00:00 11.1 3 Sur 8 Sur 0 -- -- 91
2020-06-01 05:00:00 11.6 0 Calma 11 Sudoeste 0 -- -- 90
2020-06-01 04:00:00 12.3 5 Este 11 Nordeste 0 -- -- 87
2020-06-01 03:00:00 12.6 3 Este 12 Nordeste 0 -- -- 89
2020-06-01 02:00:00 13 2 Nordeste 10 Norte 0 -- -- 89
2020-06-01 01:00:00 13.4 4 Norte 9 Norte 0 -- -- 87
2020-06-01 00:00:00 13.9 0 Calma 11 Sur 0 -- -- 89
2020-05-31 23:00:00 14.4 3 Sur 22 Este 0 -- -- 88
2020-05-31 22:00:00 14.5 2 Sudoeste 16 Este 0 -- -- 87
2020-05-31 21:00:00 14.4 9 Nordeste 18 Nordeste 1.6 -- -- 88
2020-05-31 20:00:00 14.4 4 Norte 17 Noroeste 2.6 -- -- 89
2020-05-31 19:00:00 14.6 7 Sudoeste 40 Norte 3 -- -- 83
2020-05-31 18:00:00 21.9 19 Este 37 Este 0 -- -- 45
2020-05-31 17:00:00 26.4 12 Sudoeste 31 Oeste 0 -- -- 42
2020-05-31 16:00:00 26.9 6 Oeste 12 Sur 0 -- -- 41
2020-05-31 15:00:00 26.7 8 Sur 12 Sur 0 -- -- 46
2020-05-31 14:00:00 26.3 8 Sudeste 12 Sudeste 0 -- -- 46
2020-05-31 13:00:00 25.1 8 Sudeste 12 Sur 0 -- -- 45
2020-05-31 12:00:00 23.6 4 Sur 10 Sudeste 0 -- -- 48
2020-05-31 11:00:00 21.7 3 Sudeste 8 Nordeste 0 -- -- 61
2020-05-31 10:00:00 18.6 4 Sudeste 7 Sudeste 0 -- -- 72
2020-05-31 09:00:00 15.6 0 Calma 8 Sur 0 -- -- 81
2020-05-31 08:00:00 13.5 2 Sudeste 6 Sudeste 0 -- -- 91
2020-05-31 07:00:00 12 2 Sudeste 5 Este 0 -- -- 91
2020-05-31 06:00:00 12 0 Calma 5 Sudeste 0 -- -- 90
2020-05-31 05:00:00 12.5 0 Calma 4 Nordeste 0 -- -- 88
2020-05-31 04:00:00 13.2 0 Calma 5 Este 0 -- -- 87
2020-05-31 03:00:00 13.8 0 Calma 8 Sudeste 0 -- -- 84
2020-05-31 02:00:00 14.8 0 Calma 6 Sur 0 -- -- 80
2020-05-31 01:00:00 16.1 0 Calma 8 Sur 0 -- -- 74
2020-05-31 00:00:00 17.8 4 Nordeste 18 Nordeste 0 -- -- 61
2020-05-30 23:00:00 19.8 10 Sudeste 19 Este 0 -- -- 60
2020-05-30 22:00:00 21.5 4 Sudeste 12 Sur 0 -- -- 50
2020-05-30 21:00:00 23.6 7 Sur 16 Sur 0 -- -- 41
2020-05-30 20:00:00 26.7 7 Sur 13 Sudoeste 0 -- -- 29
2020-05-30 19:00:00 27.1 8 Sudoeste 13 Sudoeste 0 -- -- 26
2020-05-30 18:00:00 26.8 8 Sur 12 Sudoeste 0 -- -- 30
2020-05-30 17:00:00 27.2 4 Sur 11 Sur 0 -- -- 32
2020-05-30 16:00:00 26.9 6 Sur 11 Sur 0 -- -- 34
2020-05-30 15:00:00 26.4 8 Este 13 Sudoeste 0 -- -- 35
2020-05-30 14:00:00 25.1 8 Sur 13 Sudoeste 0 -- -- 39
2020-05-30 13:00:00 24.1 8 Sur 13 Sudeste 0 -- -- 43
2020-05-30 12:00:00 23.1 6 Sur 13 Sudeste 0 -- -- 46
2020-05-30 11:00:00 21.5 5 Sur 13 Sudoeste 0 -- -- 46
2020-05-30 10:00:00 18.5 4 Nordeste 8 Nordeste 0 -- -- 59
2020-05-30 09:00:00 15.2 3 Sudeste 5 Sudeste 0 -- -- 69
2020-05-30 08:00:00 12.2 0 Calma 6 Sur 0 -- -- 84
2020-05-30 07:00:00 11.4 2 Sudeste 7 Sur 0 -- -- 85
2020-05-30 06:00:00 12.1 0 Calma 9 Sur 0 -- -- 83
2020-05-30 05:00:00 13 3 Sur 10 Sur 0 -- -- 78
2020-05-30 04:00:00 14.3 0 Calma 6 Este 0 -- -- 76
2020-05-30 03:00:00 15.8 0 Calma 8 Sudeste 0 -- -- 66
2020-05-30 02:00:00 17.1 3 Sur 16 Este 0 -- -- 63
2020-05-30 01:00:00 18.3 2 Sudeste 11 Este 0 -- -- 59
2020-05-30 00:00:00 19.1 7 Este 14 Este 0 -- -- 55
2020-05-29 23:00:00 19.5 9 Este 15 Este 0 -- -- 56
2020-05-29 22:00:00 21.8 4 Este 20 Sudeste 0 -- -- 46
2020-05-29 21:00:00 24.3 5 Norte 14 Oeste 0 -- -- 42
2020-05-29 20:00:00 27.1 6 Oeste 12 Oeste 0 -- -- 31
2020-05-29 19:00:00 27.6 9 Oeste 12 Oeste 0 -- -- 33
2020-05-29 18:00:00 27.9 8 Oeste 11 Oeste 0 -- -- 30
2020-05-29 17:00:00 28 7 Oeste 10 Oeste 0 -- -- 31
2020-05-29 16:00:00 27.7 6 Sudoeste 10 Sudoeste 0 -- -- 32
2020-05-29 15:00:00 26.6 8 Noroeste 11 Noroeste 0 -- -- 33
2020-05-29 14:00:00 26.1 9 Oeste 12 Noroeste 0 -- -- 35
2020-05-29 13:00:00 25.1 7 Oeste 13 Oeste 0 -- -- 36
2020-05-29 12:00:00 23.2 5 Sudeste 11 Sur 0 -- -- 52
2020-05-29 11:00:00 20.9 3 Norte 9 Norte 0 -- -- 54
2020-05-29 10:00:00 17 4 Sudeste 6 Este 0 -- -- 73
2020-05-29 09:00:00 14.1 0 Calma 5 Este 0 -- -- 84
2020-05-29 08:00:00 11.6 0 Calma -- -- 0 -- -- 93
2020-05-29 07:00:00 10.8 0 Calma -- -- 0 -- -- 93
2020-05-29 06:00:00 11.3 0 Calma 5 Este 0 -- -- 91
2020-05-29 05:00:00 11.7 3 Sudeste 7 Este 0 -- -- 91
2020-05-29 04:00:00 12.4 2 Sudeste 4 Sudeste 0 -- -- 89
2020-05-29 03:00:00 13 0 Calma 7 Sudeste 0 -- -- 89
2020-05-29 02:00:00 13.9 2 Sur 5 Sudeste 0 -- -- 85
2020-05-29 01:00:00 14.6 2 Sudeste 10 Este 0 -- -- 82
2020-05-29 00:00:00 15.4 6 Este 12 Este 0 -- -- 79
2020-05-28 23:00:00 16.8 4 Este 11 Este 0 -- -- 74
2020-05-28 22:00:00 18 10 Este 19 Este 0 -- -- 68
2020-05-28 21:00:00 19.8 7 Este 27 Este 0 -- -- 65
2020-05-28 20:00:00 22.8 12 Este 27 Este 0 -- -- 55
2020-05-28 19:00:00 24.7 8 Oeste 18 Oeste 0 -- -- 43
2020-05-28 18:00:00 26.3 7 Oeste 12 Noroeste 0 -- -- 38
2020-05-28 17:00:00 26.4 8 Sudoeste 13 Sudoeste 0 -- -- 37
2020-05-28 16:00:00 25.6 9 Oeste 13 Oeste 0 -- -- 39
2020-05-28 15:00:00 25.4 7 Sur 12 Sudeste 0 -- -- 43
2020-05-28 14:00:00 24.1 8 Sur 13 Sudeste 0 -- -- 46
2020-05-28 13:00:00 23.1 6 Sur 13 Sudeste 0 -- -- 45
2020-05-28 12:00:00 22 6 Sur 12 Sur 0 -- -- 49
2020-05-28 11:00:00 19.5 4 Sur 9 Sur 0 -- -- 66
2020-05-28 10:00:00 16.5 3 Sudeste 6 Este 0 -- -- 77
2020-05-28 09:00:00 13.8 0 Calma 9 Este 0 -- -- 87
2020-05-28 08:00:00 12.4 3 Sudeste 6 Sudeste 0 -- -- 95
2020-05-28 07:00:00 11.7 0 Calma -- -- 0 -- -- 95
2020-05-28 06:00:00 12.2 0 Calma 4 Este 0 -- -- 94
2020-05-28 05:00:00 12.5 2 Sur 6 Nordeste 0 -- -- 94
2020-05-28 04:00:00 13.1 0 Calma 8 Sur 0 -- -- 93
2020-05-28 03:00:00 13.8 3 Sur 10 Sudeste 0 -- -- 92
2020-05-28 02:00:00 14.8 7 Este 15 Este 0 -- -- 88
2020-05-28 01:00:00 15.8 0 Calma 5 Sudoeste 0 -- -- 95
2020-05-28 00:00:00 15.9 3 Sur 6 Sur 0 -- -- 95
2020-05-27 23:00:00 16 4 Este 10 Este 0 -- -- 94
2020-05-27 22:00:00 15.9 5 Nordeste 8 Nordeste 1.6 -- -- 94
2020-05-27 21:00:00 16.2 7 Este 23 Sudeste 17.8 -- -- 91
2020-05-27 20:00:00 20 15 Este 27 Este 0 -- -- 68
2020-05-27 19:00:00 23.9 10 Oeste 17 Oeste 0 -- -- 54
2020-05-27 18:00:00 23.7 10 Oeste 15 Oeste 0 -- -- 53
2020-05-27 17:00:00 23.6 7 Sur 13 Sur 0 -- -- 50
2020-05-27 16:00:00 22 5 Este 15 Sudeste 0 -- -- 62
2020-05-27 15:00:00 21.3 6 Sudeste 19 Sur 0 -- -- 63
2020-05-27 14:00:00 22.6 10 Sur 28 Sur 0 -- -- 56
2020-05-27 13:00:00 23.2 8 Sur 17 Sur 0 -- -- 54
2020-05-27 12:00:00 24.2 7 Sudeste 13 Sudeste 0 -- -- 54
2020-05-27 11:00:00 22 6 Sur 13 Sudeste 0 -- -- 62
2020-05-27 10:00:00 18.3 0 Calma 5 Noroeste 0 -- -- 70
2020-05-27 09:00:00 16.2 0 Calma 6 Norte 0 -- -- 73
2020-05-27 08:00:00 15 2 Norte 8 Norte 0 -- -- 73
2020-05-27 07:00:00 14.9 0 Calma 6 Noroeste 0 -- -- 78
2020-05-27 06:00:00 15.2 4 Nordeste 9 Nordeste 0 -- -- 81
2020-05-27 05:00:00 15.2 3 Sudeste 17 Nordeste 0 -- -- 83
2020-05-27 04:00:00 15.6 0 Calma 6 Sudeste 0 -- -- 78
2020-05-27 03:00:00 16.2 3 Nordeste 7 Este 0 -- -- 76
2020-05-27 02:00:00 17 0 Calma 5 Sudeste 0 -- -- 76
2020-05-27 01:00:00 17.8 0 Calma 6 Noroeste 0 -- -- 71
2020-05-27 00:00:00 18.4 2 Noroeste 8 Noroeste 0 -- -- 65
2020-05-26 23:00:00 19.6 4 Norte 11 Noroeste 0 -- -- 62
2020-05-26 22:00:00 21 6 Norte 12 Oeste 0 -- -- 58
2020-05-26 21:00:00 22.8 6 Sudoeste 21 Sudoeste 0 -- -- 54
2020-05-26 20:00:00 25 13 Sudoeste 25 Sudoeste 0 -- -- 49
2020-05-26 19:00:00 25.6 12 Sudoeste 23 Oeste 0 -- -- 46
2020-05-26 18:00:00 25.6 11 Sudoeste 15 Sudoeste 0 -- -- 49
2020-05-26 17:00:00 24.5 10 Sudoeste 20 Sudoeste 0 -- -- 55
2020-05-26 16:00:00 24.5 7 Sudoeste 13 Sudoeste 0 -- -- 51
2020-05-26 15:00:00 25.7 7 Sur 12 Oeste 0 -- -- 46
2020-05-26 14:00:00 24.5 6 Sudoeste 12 Oeste 0 -- -- 52
2020-05-26 13:00:00 22.8 6 Sudoeste 13 Sudeste 0 -- -- 58
2020-05-26 12:00:00 22.2 5 Este 10 Nordeste 0 -- -- 65
2020-05-26 11:00:00 19.3 3 Este 7 Sudeste 0 -- -- 72
2020-05-26 10:00:00 16 3 Este 6 Este 0 -- -- 85
2020-05-26 09:00:00 14.4 4 Norte 6 Norte 0 -- -- 89
2020-05-26 08:00:00 13.7 3 Nordeste 5 Nordeste 0 -- -- 95
2020-05-26 07:00:00 13 0 Calma 5 Sudoeste 0 -- -- 94
2020-05-26 06:00:00 13.2 0 Calma 6 Sudeste 0 -- -- 93
2020-05-26 05:00:00 13.5 0 Calma 8 Sudeste 0 -- -- 94
2020-05-26 04:00:00 13.6 4 Nordeste 9 Norte -- -- -- 93
2020-05-26 03:00:00 14.1 3 Este 7 Sudeste 0 -- -- 93
2020-05-26 02:00:00 14.9 3 Sudeste 8 Sudeste 0 -- -- 92
2020-05-26 01:00:00 15.2 2 Sudeste 11 Este 0 -- -- 93
2020-05-26 00:00:00 15.3 0 Calma 7 Este 0 -- -- 92
2020-05-25 23:00:00 16 0 Calma 6 Oeste 0 -- -- 92
2020-05-25 22:00:00 16.2 0 Calma 42 Este 19 -- -- 92
2020-05-25 21:00:00 19.9 3 Sudeste 18 Este 0.2 -- -- 81
2020-05-25 20:00:00 21.9 8 Este 15 Sur 0 -- -- 74
2020-05-25 19:00:00 23.2 9 Sur 17 Sudoeste 0 -- -- 59
2020-05-25 18:00:00 24 12 Sudoeste 22 Oeste 0 -- -- 52
2020-05-25 17:00:00 23.7 13 Oeste 20 Oeste 0 -- -- 56
2020-05-25 16:00:00 22.7 10 Noroeste 18 Noroeste 0 -- -- 59
2020-05-25 15:00:00 22.6 8 Sudoeste 13 Oeste 0 -- -- 60
2020-05-25 14:00:00 21.4 0 Calma 18 Sudoeste 0 -- -- 65
2020-05-25 13:00:00 21 10 Sudoeste 17 Oeste 0 -- -- 67
2020-05-25 12:00:00 21.4 4 Sur 15 Sudoeste 0 -- -- 66
2020-05-25 11:00:00 19.9 3 Sudeste 8 Sudeste 0 -- -- 72
2020-05-25 10:00:00 18.4 6 Sur 10 Sur 0 -- -- 77
2020-05-25 09:00:00 16.6 3 Sudeste 6 Sur 0 -- -- 85
2020-05-25 08:00:00 15.8 0 Calma 5 Sudoeste 0 -- -- 89
2020-05-25 07:00:00 15.7 0 Calma 4 Este 0.2 -- -- 86
2020-05-25 06:00:00 16.3 2 Sur 7 Oeste 0 -- -- 79
2020-05-25 05:00:00 16.5 0 Calma 6 Sudoeste 0 -- -- 77
2020-05-25 04:00:00 16.7 3 Sudoeste 6 Sudoeste 0 -- -- 76
2020-05-25 03:00:00 16.9 5 Sudoeste 9 Sudoeste 0 -- -- 74
2020-05-25 02:00:00 16.5 3 Este 5 Este 0 -- -- 80
2020-05-25 01:00:00 17.5 2 Sudoeste 10 Oeste 0 -- -- 72
2020-05-25 00:00:00 18.4 3 Oeste 9 Oeste 0 -- -- 70
2020-05-24 23:00:00 19.3 0 Calma 7 Sudoeste 0 -- -- 72
2020-05-24 22:00:00 19.8 2 Sudeste 6 Sudeste 0 -- -- 70
2020-05-24 21:00:00 21.8 3 Sudoeste 10 Oeste 0 -- -- 59
2020-05-24 20:00:00 23.6 5 Sur 17 Oeste 0 -- -- 54
2020-05-24 19:00:00 24.7 12 Oeste 16 Oeste 0 -- -- 51
2020-05-24 18:00:00 25 10 Oeste 18 Sudoeste 0 -- -- 50
2020-05-24 17:00:00 25.7 9 Sudoeste 13 Oeste 0 -- -- 49
2020-05-24 16:00:00 24.9 10 Oeste 14 Oeste 0 -- -- 52
2020-05-24 15:00:00 24.4 8 Oeste 14 Oeste 0 -- -- 51
2020-05-24 14:00:00 23 9 Oeste 17 Oeste 0 -- -- 55
2020-05-24 13:00:00 21.7 11 Sudoeste 17 Sudoeste 0 -- -- 58
2020-05-24 12:00:00 20.4 4 Noroeste 9 Oeste 0 -- -- 61
2020-05-24 11:00:00 18.4 2 Norte 9 Noroeste 0 -- -- 63
2020-05-24 10:00:00 15.3 0 Calma 8 Nordeste 0 -- -- 71
2020-05-24 09:00:00 13 0 Calma 5 Este 0 -- -- 77
2020-05-24 08:00:00 11.1 0 Calma 4 Sudoeste 0 -- -- 86
2020-05-24 07:00:00 10.3 0 Calma 4 Sudoeste 0 -- -- 88
2020-05-24 06:00:00 10.6 0 Calma 7 Oeste 0 -- -- 86
2020-05-24 05:00:00 11.2 6 Sudoeste 9 Sudoeste 0 -- -- 82
2020-05-24 04:00:00 11.5 0 Calma 4 Este 0 -- -- 83
2020-05-24 03:00:00 11.8 0 Calma 5 Sudoeste 0 -- -- 80
2020-05-24 02:00:00 12 0 Calma 6 Sudoeste 0 -- -- 80
2020-05-24 01:00:00 12.8 2 Sur 8 Este 0 -- -- 76
2020-05-24 00:00:00 14.1 0 Calma 10 Oeste 0 -- -- 70
2020-05-23 23:00:00 15.3 4 Nordeste 14 Noroeste 0 -- -- 64
2020-05-23 22:00:00 16.9 4 Norte 23 Noroeste 0 -- -- 59
2020-05-23 21:00:00 19 9 Norte 28 Noroeste 0 -- -- 55
2020-05-23 20:00:00 21.7 16 Oeste 35 Oeste 0 -- -- 49
2020-05-23 19:00:00 23.8 17 Oeste 28 Oeste 0 -- -- 46
2020-05-23 18:00:00 24.5 13 Oeste 27 Oeste 0 -- -- 48
2020-05-23 17:00:00 25 17 Oeste 34 Sudoeste 0 -- -- 45
2020-05-23 16:00:00 26.4 9 Oeste 22 Oeste 0 -- -- 40
2020-05-23 15:00:00 25.3 12 Oeste 26 Oeste 0 -- -- 45
2020-05-23 14:00:00 24.5 14 Oeste 22 Oeste 0 -- -- 47
2020-05-23 13:00:00 23 12 Oeste 26 Oeste 0 -- -- 54
2020-05-23 12:00:00 22.8 7 Noroeste 15 Noroeste 0 -- -- 54
2020-05-23 11:00:00 20.4 5 Noroeste 15 Oeste 0 -- -- 64
2020-05-23 10:00:00 17.6 4 Sudeste 10 Oeste 0 -- -- 76
2020-05-23 09:00:00 16 4 Oeste 13 Sudoeste 0 -- -- 82
2020-05-23 08:00:00 15.9 6 Oeste 19 Oeste 0 -- -- 80
2020-05-23 07:00:00 15 15 Oeste 25 Oeste 0 -- -- 78
2020-05-23 06:00:00 15.3 3 Sudeste 6 Sudeste 0 -- -- 73
2020-05-23 05:00:00 16.2 0 Calma 8 Nordeste 0 -- -- 69
2020-05-23 04:00:00 14.9 0 Calma 7 Sudeste 0 -- -- 74
2020-05-23 03:00:00 15.7 3 Sudeste 9 Sudeste 0 -- -- 71
2020-05-23 02:00:00 15.9 0 Calma 10 Sudeste 0 -- -- 70
2020-05-23 01:00:00 16.2 0 Calma 6 Sudeste 0 -- -- 71
2020-05-23 00:00:00 17.2 0 Calma 10 Sudeste 0 -- -- 68
2020-05-22 23:00:00 18.5 2 Este 7 Este 0 -- -- 63
2020-05-22 22:00:00 21.8 0 Calma 7 Nordeste 0 -- -- 47
2020-05-22 21:00:00 26.1 0 Calma 8 Sudoeste 0 -- -- 38
2020-05-22 20:00:00 29.4 4 Sur 10 Sudoeste 0 -- -- 27
2020-05-22 19:00:00 29.8 8 Sur 10 Sudoeste 0 -- -- 26
2020-05-22 18:00:00 30.3 5 Sudoeste 8 Sudoeste 0 -- -- 25
2020-05-22 17:00:00 30.4 6 Sudeste 8 Sudoeste 0 -- -- 29
2020-05-22 16:00:00 30.6 5 Sur 8 Sur 0 -- -- 24
2020-05-22 15:00:00 29.5 5 Sudeste 9 Sur 0 -- -- 22
2020-05-22 14:00:00 28.4 5 Sur 9 Sur 0 -- -- 32
2020-05-22 13:00:00 27.7 5 Sudeste 9 Sur 0 -- -- 34
2020-05-22 12:00:00 26.3 4 Este 8 Este 0 -- -- 40
2020-05-22 11:00:00 23 3 Nordeste 9 Norte 0 -- -- 51
2020-05-22 10:00:00 19.2 4 Nordeste 9 Nordeste 0 -- -- 64
2020-05-22 09:00:00 15.4 0 Calma 5 Noroeste 0 -- -- 76
2020-05-22 08:00:00 12.3 0 Calma 6 Oeste 0 -- -- 87
2020-05-22 07:00:00 11 2 Sudoeste 7 Oeste 0 -- -- 89
2020-05-22 06:00:00 11.4 0 Calma 6 Este 0 -- -- 88
2020-05-22 05:00:00 11.8 0 Calma 6 Sudeste 0 -- -- 87
2020-05-22 04:00:00 12.4 3 Sudeste 6 Sudeste 0 -- -- 86
2020-05-22 03:00:00 12.9 2 Sudeste 7 Este 0 -- -- 85
2020-05-22 02:00:00 13.5 0 Calma 6 Este 0 -- -- 85
2020-05-22 01:00:00 14.5 3 Sudeste 7 Este 0 -- -- 82
2020-05-22 00:00:00 15.9 4 Sudeste 6 Nordeste 0 -- -- 78
2020-05-21 23:00:00 18.1 2 Nordeste 5 Nordeste 0 -- -- 72
2020-05-21 22:00:00 21.4 0 Calma 8 Sudoeste 0 -- -- 58
2020-05-21 21:00:00 24.9 5 Oeste 13 Oeste 0 -- -- 43
2020-05-21 20:00:00 27.1 9 Oeste 15 Oeste 0 -- -- 40
2020-05-21 19:00:00 26 9 Sudoeste 15 Oeste 0 -- -- 47
2020-05-21 18:00:00 27.5 10 Oeste 13 Oeste 0 -- -- 43
2020-05-21 17:00:00 28.3 8 Oeste 12 Oeste 0 -- -- 37
2020-05-21 16:00:00 27.6 8 Oeste 14 Oeste 0 -- -- 36
2020-05-21 15:00:00 28.5 6 Sudoeste 10 Noroeste 0 -- -- 34
2020-05-21 14:00:00 27.6 6 Sudoeste 10 Sudoeste 0 -- -- 27
2020-05-21 13:00:00 26.4 6 Sur 10 Sudoeste 0 -- -- 37
2020-05-21 12:00:00 24.2 4 Este 9 Este 0 -- -- 47
2020-05-21 11:00:00 20.6 4 Este 7 Nordeste 0 -- -- 60
2020-05-21 10:00:00 17.6 4 Este 8 Nordeste 0 -- -- 69
2020-05-21 09:00:00 14.1 0 Calma 4 Este 0 -- -- 83
2020-05-21 08:00:00 11.2 0 Calma 4 Este 0 -- -- 91
2020-05-21 07:00:00 10.6 0 Calma 4 Sudoeste 0 -- -- 90
2020-05-21 06:00:00 10.8 3 Sur 9 Sudoeste 0 -- -- 89
2020-05-21 05:00:00 11.5 4 Sudoeste 9 Oeste 0 -- -- 88
2020-05-21 04:00:00 12.1 4 Sudoeste 9 Sudoeste 0 -- -- 86
2020-05-21 03:00:00 13 2 Sudeste 6 Sudeste 0 -- -- 84
2020-05-21 02:00:00 14 0 Calma 4 Este 0 -- -- 81
2020-05-21 01:00:00 15 0 Calma 6 Nordeste 0 -- -- 77
2020-05-21 00:00:00 16.6 0 Calma 8 Nordeste 0 -- -- 70
2020-05-20 23:00:00 18.1 2 Sudeste 7 Este 0 -- -- 67
2020-05-20 22:00:00 20.5 4 Nordeste 12 Oeste 0 -- -- 55
2020-05-20 21:00:00 24.1 6 Oeste 15 Oeste 0 -- -- 42
2020-05-20 20:00:00 26.5 11 Oeste 17 Oeste 0 -- -- 35
2020-05-20 19:00:00 27.1 11 Oeste 22 Oeste 0 -- -- 29
2020-05-20 18:00:00 27.8 9 Oeste 14 Oeste 0 -- -- 24
2020-05-20 17:00:00 27.9 7 Oeste 12 Sudoeste 0 -- -- 23
2020-05-20 16:00:00 27.4 9 Oeste 13 Oeste 0 -- -- 22
2020-05-20 15:00:00 26.7 10 Oeste 13 Noroeste 0 -- -- 25
2020-05-20 14:00:00 25.9 10 Oeste 13 Oeste 0 -- -- 27
2020-05-20 13:00:00 25.1 6 Sudoeste 12 Sudoeste 0 -- -- 32
2020-05-20 12:00:00 23.4 5 Este 9 Este 0 -- -- 33
2020-05-20 11:00:00 20 2 Sudeste 6 Nordeste 0 -- -- 37
2020-05-20 10:00:00 15.3 0 Calma 6 Este 0 -- -- 53
2020-05-20 09:00:00 10.8 2 Nordeste 6 Este 0 -- -- 77
2020-05-20 08:00:00 7.4 3 Este 4 Este 0 -- -- 91
2020-05-20 07:00:00 6.9 2 Sudoeste 5 Sudoeste 0 -- -- 89
2020-05-20 06:00:00 7.6 0 Calma 5 Sur 0 -- -- 87
2020-05-20 05:00:00 8.7 0 Calma 7 Sudoeste 0 -- -- 85
2020-05-20 04:00:00 9.4 2 Sudeste 6 Sudoeste 0 -- -- 84
2020-05-20 03:00:00 10.3 0 Calma 9 Oeste 0 -- -- 80
2020-05-20 02:00:00 11.5 4 Oeste 9 Sudoeste 0 -- -- 78
2020-05-20 01:00:00 13.7 3 Sudeste 9 Sudeste 0 -- -- 63
2020-05-20 00:00:00 15.8 4 Sudoeste 14 Norte 0 -- -- 61
2020-05-19 23:00:00 18.2 2 Este 19 Nordeste 0 -- -- 44
2020-05-19 22:00:00 19.6 8 Norte 19 Norte 0 -- -- 40
2020-05-19 21:00:00 22.3 10 Norte 25 Norte 0 -- -- 32
2020-05-19 20:00:00 23.4 14 Norte 30 Norte 0 -- -- 32
2020-05-19 19:00:00 25.4 12 Norte 17 Norte 0 -- -- 29
2020-05-19 18:00:00 26.1 11 Norte 14 Norte 0 -- -- 29
2020-05-19 17:00:00 27.7 4 Oeste 11 Norte 0 -- -- 21
2020-05-19 16:00:00 26.6 9 Norte 12 Nordeste 0 -- -- 26
2020-05-19 15:00:00 26.4 5 Norte 12 Oeste 0 -- -- 27
2020-05-19 14:00:00 25.3 7 Sudoeste 13 Oeste 0 -- -- 31
2020-05-19 13:00:00 23.2 4 Norte 9 Sudoeste 0 -- -- 41
2020-05-19 12:00:00 21 5 Sudeste 10 Sudeste 0 -- -- 40
2020-05-19 11:00:00 17.6 3 Sur 8 Sudeste 0 -- -- 47
2020-05-19 10:00:00 13.4 0 Calma 8 Este 0 -- -- 56
2020-05-19 09:00:00 9.7 3 Norte 9 Nordeste 0 -- -- 73
2020-05-19 08:00:00 6.6 2 Este 6 Sudeste 0 -- -- 89
2020-05-19 07:00:00 5.7 2 Nordeste 6 Nordeste 0 -- -- 89
2020-05-19 06:00:00 6.3 0 Calma 5 Oeste 0 -- -- 90
2020-05-19 05:00:00 6.9 0 Calma 6 Oeste 0 -- -- 88
2020-05-19 04:00:00 7.6 0 Calma 9 Sudoeste 0 -- -- 86
2020-05-19 03:00:00 8.3 0 Calma 5 Sudeste 0 -- -- 84
2020-05-19 02:00:00 9.6 3 Sudeste 6 Este 0 -- -- 81
2020-05-19 01:00:00 11.2 0 Calma 6 Nordeste 0 -- -- 76
2020-05-19 00:00:00 13 2 Sudeste 11 Este 0 -- -- 66
2020-05-18 23:00:00 15.7 0 Calma 13 Norte 0 -- -- 58
2020-05-18 22:00:00 17.2 7 Noroeste 17 Noroeste 0 -- -- 50
2020-05-18 21:00:00 19.3 7 Norte 25 Oeste 0 -- -- 46
2020-05-18 20:00:00 22.1 12 Sudoeste 33 Oeste 0 -- -- 40
2020-05-18 19:00:00 23.2 17 Oeste 30 Noroeste 0 -- -- 39
2020-05-18 18:00:00 24.5 13 Oeste 23 Oeste 0 -- -- 33
2020-05-18 17:00:00 24.8 12 Oeste 19 Oeste 0 -- -- 32
2020-05-18 16:00:00 24.8 10 Oeste 14 Oeste 0 -- -- 31
2020-05-18 15:00:00 23.8 10 Noroeste 14 Sur 0 -- -- 31
2020-05-18 14:00:00 22.7 6 Sur 14 Sudeste 0 -- -- 39
2020-05-18 13:00:00 21.2 4 Sudoeste 13 Noroeste 0 -- -- 41
2020-05-18 12:00:00 19.5 0 Calma 10 Norte 0 -- -- 40
2020-05-18 11:00:00 16.5 4 Este 8 Este 0 -- -- 51
2020-05-18 10:00:00 12.7 3 Sudeste 7 Oeste 0 -- -- 64
2020-05-18 09:00:00 8.5 0 Calma 5 Este 0 -- -- 82
2020-05-18 08:00:00 5.9 0 Calma 6 Norte 0 -- -- 92
2020-05-18 07:00:00 5.3 0 Calma 6 Norte 0 -- -- 91
2020-05-18 06:00:00 5.6 3 Sudoeste 9 Oeste 0 -- -- 91
2020-05-18 05:00:00 6 0 Calma 5 Este 0 -- -- 90
2020-05-18 04:00:00 6.8 0 Calma 6 Este 0 -- -- 88
2020-05-18 03:00:00 7.7 0 Calma 7 Sudoeste 0 -- -- 86
2020-05-18 02:00:00 8.8 0 Calma 9 Oeste 0 -- -- 82
2020-05-18 01:00:00 10.1 0 Calma 8 Nordeste 0 -- -- 75
2020-05-18 00:00:00 11.4 3 Sur 9 Norte 0 -- -- 69
2020-05-17 23:00:00 13.5 4 Este 12 Norte 0 -- -- 56
2020-05-17 22:00:00 15.3 5 Norte 12 Noroeste 0 -- -- 50
2020-05-17 21:00:00 17.7 7 Norte 26 Oeste 0 -- -- 45
2020-05-17 20:00:00 20.2 14 Oeste 28 Oeste 0 -- -- 41
2020-05-17 19:00:00 21.7 15 Oeste 26 Sudoeste 0 -- -- 34
2020-05-17 18:00:00 22.4 14 Oeste 24 Oeste 0 -- -- 30
2020-05-17 17:00:00 22.6 13 Oeste 17 Sudoeste 0 -- -- 29
2020-05-17 16:00:00 22.2 8 Oeste 17 Oeste 0 -- -- 30
2020-05-17 15:00:00 21.8 8 Sudoeste 15 Noroeste 0 -- -- 32
2020-05-17 14:00:00 20.5 7 Oeste 15 Sudoeste 0 -- -- 34
2020-05-17 13:00:00 19.4 5 Sur 12 Sudoeste 0 -- -- 41
2020-05-17 12:00:00 17.4 3 Nordeste 9 Nordeste 0 -- -- 50
2020-05-17 11:00:00 14.6 5 Este 9 Este 0 -- -- 61
2020-05-17 10:00:00 11.1 2 Sudeste 6 Sudeste 0 -- -- 75
2020-05-17 09:00:00 8 0 Calma 5 Este 0 -- -- 89
2020-05-17 08:00:00 5.9 0 Calma 4 Este 0 -- -- 94
2020-05-17 07:00:00 5.4 0 Calma 5 Sur 0 -- -- 92
2020-05-17 06:00:00 5.9 0 Calma 6 Sur 0 -- -- 91
2020-05-17 05:00:00 6.3 0 Calma 8 Sudeste 0 -- -- 91
2020-05-17 04:00:00 6.9 0 Calma 7 Sur 0 -- -- 89
2020-05-17 03:00:00 7.3 0 Calma 11 Este 0 -- -- 87
2020-05-17 02:00:00 8 2 Sur 6 Este 0 -- -- 85
2020-05-17 01:00:00 9 2 Sudeste 10 Este 0 -- -- 81
2020-05-17 00:00:00 10.4 5 Este 10 Sudoeste 0 -- -- 74
2020-05-16 23:00:00 13.1 7 Oeste 17 Noroeste 0 -- -- 53
2020-05-16 22:00:00 13.9 9 Norte 26 Norte 0 -- -- 49
2020-05-16 21:00:00 14.7 11 Norte 25 Norte 0 -- -- 48
2020-05-16 20:00:00 17.3 14 Norte 25 Norte 0 -- -- 40
2020-05-16 19:00:00 18.5 12 Norte 28 Norte 0 -- -- 35
2020-05-16 18:00:00 17.6 16 Norte 26 Norte 0 -- -- 41
2020-05-16 17:00:00 17.4 6 Sudoeste 24 Oeste 0 -- -- 51
2020-05-16 16:00:00 18.7 14 Oeste 28 Sudoeste 0 -- -- 47
2020-05-16 15:00:00 17.6 8 Oeste 19 Oeste 0 -- -- 53
2020-05-16 14:00:00 16.8 3 Sudeste 14 Sudoeste 0 -- -- 65
2020-05-16 13:00:00 16.3 5 Sudeste 14 Sur 0 -- -- 69
2020-05-16 12:00:00 14.1 4 Noroeste 8 Nordeste 0 -- -- 73
2020-05-16 11:00:00 13.2 2 Oeste 10 Este 0 -- -- 78
2020-05-16 10:00:00 11.5 0 Calma 10 Oeste 0 -- -- 83
2020-05-16 09:00:00 9.9 4 Oeste 12 Norte 0 -- -- 87
2020-05-16 08:00:00 9.3 3 Sur 9 Oeste 0 -- -- 90
2020-05-16 07:00:00 9.1 2 Sudoeste 5 Norte 0 -- -- 91
2020-05-16 06:00:00 9.1 0 Calma 10 Oeste 0 -- -- 92
2020-05-16 05:00:00 9.3 2 Oeste 11 Noroeste 0 -- -- 91
2020-05-16 04:00:00 9.6 3 Noroeste 15 Oeste 0 -- -- 91
2020-05-16 03:00:00 9.8 9 Oeste 19 Oeste 0 -- -- 92
2020-05-16 02:00:00 10.2 7 Oeste 15 Oeste 0 -- -- 95
2020-05-16 01:00:00 10.4 5 Oeste 12 Oeste 0 -- -- 95
2020-05-16 00:00:00 10.7 2 Oeste 11 Noroeste 0 -- -- 94
2020-05-15 23:00:00 10.8 0 Calma 9 Noroeste 0 -- -- 91
2020-05-15 22:00:00 11.5 2 Norte 8 Oeste 0 -- -- 93
2020-05-15 21:00:00 11.8 3 Norte 6 Nordeste 3.2 -- -- 94
2020-05-15 20:00:00 12.2 2 Sur 13 Sudoeste 0.2 -- -- 91
2020-05-15 19:00:00 12.5 2 Nordeste 5 Sudeste 0.4 -- -- 93
2020-05-15 18:00:00 12.2 0 Calma 9 Este 2.4 -- -- 93
2020-05-15 17:00:00 11.9 2 Este 13 Sudeste 2.8 -- -- 90
2020-05-15 16:00:00 13.6 9 Este 14 Nordeste 2.8 -- -- 88
2020-05-15 15:00:00 14.4 8 Norte 15 Norte 0.8 -- -- 80
2020-05-15 14:00:00 17.6 8 Nordeste 15 Nordeste 0 -- -- 60
2020-05-15 13:00:00 15.9 4 Norte 14 Sudoeste 0 -- -- 67
2020-05-15 12:00:00 14.7 5 Sudeste 13 Sur 0 -- -- 70
2020-05-15 11:00:00 12.9 2 Sur 11 Sudoeste 0 -- -- 74
2020-05-15 10:00:00 11.7 4 Este 6 Este 0 -- -- 83
2020-05-15 09:00:00 10.2 0 Calma 5 Sudoeste 0 -- -- 88
2020-05-15 08:00:00 9.6 2 Sudoeste 9 Oeste 0 -- -- 89
2020-05-15 07:00:00 9.2 3 Oeste 8 Noroeste 0 -- -- 91
2020-05-15 06:00:00 9.2 0 Calma 9 Oeste 0 -- -- 90
2020-05-15 05:00:00 9.2 0 Calma 11 Sudoeste 0 -- -- 90
2020-05-15 04:00:00 9.4 5 Oeste 14 Oeste 0 -- -- 89
2020-05-15 03:00:00 9.7 6 Oeste 15 Noroeste 0 -- -- 90
2020-05-15 02:00:00 10.4 7 Oeste 15 Oeste 0 -- -- 90
2020-05-15 01:00:00 10.7 0 Calma -- -- 0 -- -- 95
2020-05-15 00:00:00 10.6 0 Calma 5 Sudeste 0 -- -- 95
2020-05-14 23:00:00 10.7 0 Calma 5 Sudeste 0 -- -- 94
2020-05-14 22:00:00 10.9 0 Calma 6 Sudoeste 0 -- -- 93
2020-05-14 21:00:00 11.2 2 Sur 9 Sudoeste 0 -- -- 92
2020-05-14 20:00:00 11.6 2 Sur 6 Sur 0.2 -- -- 91
2020-05-14 19:00:00 11.6 3 Sur 7 Sudoeste 0.2 -- -- 90
2020-05-14 18:00:00 11.3 3 Sudeste 9 Sudeste 1.2 -- -- 92
2020-05-14 17:00:00 11.1 0 Calma 14 Oeste 3.4 -- -- 91
2020-05-14 16:00:00 12.5 3 Oeste 25 Sudeste 2.4 -- -- 87
2020-05-14 15:00:00 16.1 8 Sur 22 Sur 0 -- -- 70
2020-05-14 14:00:00 17.2 3 Este 12 Nordeste 0 -- -- 52
2020-05-14 13:00:00 17 9 Norte 25 Norte 0 -- -- 53
2020-05-14 12:00:00 15.4 13 Norte 22 Norte 0 -- -- 63
2020-05-14 11:00:00 14.2 5 Norte 11 Noroeste 0 -- -- 69
2020-05-14 10:00:00 11.9 4 Norte 9 Noroeste 0 -- -- 79
2020-05-14 09:00:00 9.5 0 Calma 5 Oeste 0 -- -- 91
2020-05-14 08:00:00 8.2 0 Calma 6 Oeste 0 -- -- 94
2020-05-14 07:00:00 7.5 2 Sur 6 Sudoeste 0 -- -- 94
2020-05-14 06:00:00 7.3 0 Calma 6 Sudeste 0 -- -- 94
2020-05-14 05:00:00 7.7 0 Calma 6 Sudeste 0 -- -- 93
2020-05-14 04:00:00 8.2 0 Calma 6 Sudeste 0 -- -- 93
2020-05-14 03:00:00 8.9 0 Calma 4 Sudeste 0 -- -- 92
2020-05-14 02:00:00 9.1 2 Sudeste 6 Este 0 -- -- 91
2020-05-14 01:00:00 10.2 0 Calma 7 Noroeste 0 -- -- 88
2020-05-14 00:00:00 10.7 3 Oeste 7 Noroeste 0 -- -- 87
2020-05-13 23:00:00 10.3 0 Calma 7 Este 0 -- -- 88
2020-05-13 22:00:00 12.2 4 Sudoeste 8 Sudoeste 0 -- -- 80
2020-05-13 21:00:00 14.3 4 Oeste 17 Oeste 0 -- -- 70
2020-05-13 20:00:00 17.5 6 Sudoeste 11 Oeste 0 -- -- 56
2020-05-13 19:00:00 16.5 3 Sudeste 14 Oeste 0.2 -- -- 62
2020-05-13 18:00:00 14.1 12 Sudoeste 17 Oeste 0.2 -- -- 73
2020-05-13 17:00:00 13.7 10 Noroeste 26 Oeste 0 -- -- 76
2020-05-13 16:00:00 14.7 13 Oeste 22 Oeste 0 -- -- 68
2020-05-13 15:00:00 15.1 9 Oeste 28 Sur 0 -- -- 63
2020-05-13 14:00:00 15.7 9 Sur 16 Sur 0 -- -- 53
2020-05-13 13:00:00 15.4 9 Sudoeste 17 Sur 0 -- -- 60
2020-05-13 12:00:00 14 8 Sur 18 Sur 0 -- -- 67
2020-05-13 11:00:00 13.3 6 Sur 14 Sur 0 -- -- 72
2020-05-13 10:00:00 12.3 4 Norte 9 Norte 0 -- -- 73
2020-05-13 09:00:00 10.6 2 Este 10 Nordeste 0 -- -- 84
2020-05-13 08:00:00 8.7 2 Sur 6 Sudoeste 0 -- -- 94
2020-05-13 07:00:00 7.8 0 Calma 6 Este 0 -- -- 94
2020-05-13 06:00:00 8.5 5 Este 24 Nordeste 0 -- -- 87
2020-05-13 05:00:00 8.8 8 Nordeste 26 Norte 0 -- -- 87
2020-05-13 04:00:00 9.5 8 Norte 15 Nordeste 2.8 -- -- 92
2020-05-13 03:00:00 10.3 8 Nordeste 18 Norte 5.8 -- -- 91
2020-05-13 02:00:00 11.6 0 Calma 14 Norte 0.6 -- -- 86
2020-05-13 01:00:00 12 4 Este 10 Nordeste 0.2 -- -- 83
2020-05-13 00:00:00 12.4 0 Calma 9 Nordeste 0 -- -- 78
2020-05-12 23:00:00 12.3 0 Calma 7 Norte 0 -- -- 90
2020-05-12 22:00:00 12.4 2 Este 10 Nordeste 0 -- -- 90
2020-05-12 21:00:00 12.8 3 Nordeste 12 Norte 0 -- -- 87
2020-05-12 20:00:00 13.1 0 Calma 8 Nordeste 0.8 -- -- 85
2020-05-12 19:00:00 14.6 3 Noroeste 18 Norte 0.2 -- -- 73
2020-05-12 18:00:00 14.9 12 Norte 22 Norte 0 -- -- 69
2020-05-12 17:00:00 16.2 4 Sudeste 21 Sudeste 0 -- -- 67
2020-05-12 16:00:00 19 8 Sur 19 Sudoeste 0 -- -- 52
2020-05-12 15:00:00 20.8 7 Sudeste 15 Noroeste 0 -- -- 45
2020-05-12 14:00:00 19.8 7 Sur 17 Sur 0 -- -- 37
2020-05-12 13:00:00 17.7 5 Sur 14 Sudoeste 0 -- -- 58
2020-05-12 12:00:00 15.5 5 Oeste 14 Oeste 0 -- -- 62
2020-05-12 11:00:00 13.6 5 Sudoeste 14 Oeste 0 -- -- 70
2020-05-12 10:00:00 11.7 5 Oeste 10 Sudoeste 0 -- -- 75
2020-05-12 09:00:00 9.7 3 Norte 9 Nordeste 0 -- -- 88
2020-05-12 08:00:00 7.9 0 Calma 6 Sur 0 -- -- 95
2020-05-12 07:00:00 7.3 2 Sudeste 5 Este 0 -- -- 93
2020-05-12 06:00:00 8 2 Sur 6 Sur 0 -- -- 94
2020-05-12 05:00:00 8 0 Calma 5 Este 0 -- -- 93
2020-05-12 04:00:00 7.7 0 Calma 7 Sur 0 -- -- 94
2020-05-12 03:00:00 7.4 0 Calma 9 Sur 0 -- -- 93
2020-05-12 02:00:00 8 0 Calma 6 Sudoeste 0 -- -- 91
2020-05-12 01:00:00 8.9 0 Calma 6 Nordeste 0 -- -- 89
2020-05-12 00:00:00 9.7 3 Sudeste 9 Sudeste 0 -- -- 85
2020-05-11 23:00:00 12 3 Sudoeste 10 Noroeste 0 -- -- 73
2020-05-11 22:00:00 13 3 Sur 16 Oeste 0 -- -- 69
2020-05-11 21:00:00 13.7 5 Sur 24 Oeste 0 -- -- 63
2020-05-11 20:00:00 14.7 12 Oeste 36 Oeste 0 -- -- 57
2020-05-11 19:00:00 16.7 18 Sudoeste 34 Sudoeste 0 -- -- 52
2020-05-11 18:00:00 17.2 18 Oeste 36 Oeste 0 -- -- 49
2020-05-11 17:00:00 16.2 21 Oeste 42 Sudoeste 0 -- -- 53
2020-05-11 16:00:00 13.4 15 Oeste 29 Noroeste 0 -- -- 65
2020-05-11 15:00:00 12.1 6 Oeste 18 Oeste 0 -- -- 79
2020-05-11 14:00:00 11.3 12 Sudoeste 24 Oeste 0 -- -- 80
2020-05-11 13:00:00 11.4 16 Oeste 33 Oeste 0 -- -- 79
2020-05-11 12:00:00 11.2 14 Sudoeste 27 Oeste 0.4 -- -- 84
2020-05-11 11:00:00 11 12 Sudoeste 24 Oeste 0.4 -- -- 87
2020-05-11 10:00:00 10.5 11 Sudoeste 28 Oeste 0.2 -- -- 87
2020-05-11 09:00:00 10.3 13 Sudoeste 26 Sudoeste 0 -- -- 85
2020-05-11 08:00:00 10.1 10 Sudoeste 22 Oeste 0 -- -- 84
2020-05-11 07:00:00 9.9 8 Sudoeste 14 Sudoeste 0 -- -- 87
2020-05-11 06:00:00 9.7 6 Oeste 24 Sudoeste 0 -- -- 87
2020-05-11 05:00:00 9.8 9 Oeste 25 Sudoeste 0 -- -- 87
2020-05-11 04:00:00 9.9 13 Oeste 23 Sudoeste 0 -- -- 86
2020-05-11 03:00:00 9.9 12 Oeste 27 Oeste 0 -- -- 87
2020-05-11 02:00:00 9.9 13 Oeste 22 Oeste 0 -- -- 89
2020-05-11 01:00:00 10.1 10 Oeste 21 Oeste 0 -- -- 91
2020-05-11 00:00:00 10.2 11 Oeste 24 Oeste 0.2 -- -- 91
2020-05-10 23:00:00 10.4 11 Sudoeste 21 Oeste 0.2 -- -- 92
2020-05-10 22:00:00 10.4 5 Sudoeste 17 Sudoeste 0.4 -- -- 93
2020-05-10 21:00:00 10.7 7 Sudoeste 21 Oeste 0.4 -- -- 92
2020-05-10 20:00:00 10.9 6 Sudoeste 15 Sudoeste 2.4 -- -- 96
2020-05-10 19:00:00 10.7 2 Sur 10 Sur 1.4 -- -- 95
2020-05-10 18:00:00 10.7 3 Sur 9 Sudoeste 0.2 -- -- 94
2020-05-10 17:00:00 10.5 0 Calma 7 Sudoeste 0.6 -- -- 94
2020-05-10 16:00:00 9.8 4 Sudoeste 10 Sudeste 2.6 -- -- 94
2020-05-10 15:00:00 9.5 3 Este 6 Nordeste 3 -- -- 93
2020-05-10 14:00:00 9.1 2 Nordeste 24 Nordeste 1 -- -- 92
2020-05-10 13:00:00 8.4 13 Norte 35 Norte 1.2 -- -- 87
2020-05-10 12:00:00 8.1 18 Norte 41 Norte 3.6 -- -- 89
2020-05-10 11:00:00 8.5 19 Norte 40 Norte 3 -- -- 90
2020-05-10 10:00:00 9.4 18 Norte 37 Norte 3 -- -- 92
2020-05-10 09:00:00 10 8 Norte 26 Norte 9 -- -- 95
2020-05-10 08:00:00 10.8 7 Norte 15 Norte 10 -- -- 94
2020-05-10 07:00:00 12.4 8 Noroeste 17 Noroeste 20.2 -- -- 93
2020-05-10 06:00:00 13.8 5 Sur 21 Sudoeste 3.6 -- -- 89
2020-05-10 05:00:00 15.1 5 Este 14 Este 0 -- -- 77
2020-05-10 04:00:00 15 3 Norte 13 Oeste 0 -- -- 77
2020-05-10 03:00:00 14.6 0 Calma 12 Nordeste 0 -- -- 83
2020-05-10 02:00:00 15.4 0 Calma 15 Este 0.4 -- -- 80
2020-05-10 01:00:00 16.2 9 Sudeste 23 Sudeste 0 -- -- 70
2020-05-10 00:00:00 15.1 3 Sudeste 10 Sur 0 -- -- 74
2020-05-09 23:00:00 15.5 3 Sudeste 6 Este 0 -- -- 72
2020-05-09 22:00:00 16.8 3 Este 21 Sudeste 0 -- -- 66
2020-05-09 21:00:00 18.5 5 Sudeste 19 Este 0 -- -- 58
2020-05-09 20:00:00 20.9 9 Este 15 Este 0 -- -- 48
2020-05-09 19:00:00 21 6 Sudeste 23 Sudeste 0 -- -- 50
2020-05-09 18:00:00 22.2 12 Sudeste 27 Este 0 -- -- 36
2020-05-09 17:00:00 22.9 14 Este 24 Este 0 -- -- 35
2020-05-09 16:00:00 23.9 9 Sur 21 Sur 0 -- -- 39
2020-05-09 15:00:00 23.8 12 Sudoeste 22 Sur 0 -- -- 40
2020-05-09 14:00:00 23.2 8 Sur 17 Sudeste 0 -- -- 42
2020-05-09 13:00:00 21.3 4 Este 17 Norte 0 -- -- 42
2020-05-09 12:00:00 18.5 9 Nordeste 19 Norte 0 -- -- 50
2020-05-09 11:00:00 14.4 10 Nordeste 20 Nordeste 0 -- -- 70
2020-05-09 10:00:00 12.8 10 Este 20 Nordeste 0 -- -- 81
2020-05-09 09:00:00 12.2 7 Noroeste 17 Oeste 0 -- -- 85
2020-05-09 08:00:00 12 0 Calma 12 Nordeste 0.4 -- -- 90
2020-05-09 07:00:00 13 6 Oeste 42 Sudoeste 2 -- -- 79
2020-05-09 06:00:00 14.9 20 Sudoeste 50 Sudoeste 0 -- -- 58
2020-05-09 05:00:00 14.7 0 Calma 9 Este 0 -- -- 65
2020-05-09 04:00:00 14.6 4 Noroeste 8 Sur 0 -- -- 62
2020-05-09 03:00:00 13.9 3 Sudeste 7 Este 0 -- -- 65
2020-05-09 02:00:00 15.8 4 Sudoeste 12 Este 0 -- -- 54
2020-05-09 01:00:00 16.2 4 Este 23 Sur 0 -- -- 55
2020-05-09 00:00:00 17 6 Sur 18 Este 0 -- -- 49
2020-05-08 23:00:00 17.6 8 Este 14 Este 0 -- -- 49
2020-05-08 22:00:00 18.9 6 Sudeste 17 Sudeste 0 -- -- 45
2020-05-08 21:00:00 20.8 3 Nordeste 23 Sudeste 0 -- -- 39
2020-05-08 20:00:00 24 12 Sudeste 20 Este 0 -- -- 31
2020-05-08 19:00:00 25.2 8 Sudeste 26 Este 0 -- -- 29
2020-05-08 18:00:00 25.9 10 Sudeste 28 Sudeste 0 -- -- 25
2020-05-08 17:00:00 26.3 10 Este 21 Este 0 -- -- 26
2020-05-08 16:00:00 25.7 10 Este 24 Sudeste 0 -- -- 24
2020-05-08 15:00:00 25.3 10 Sudeste 18 Este 0 -- -- 24
2020-05-08 14:00:00 24.9 8 Este 22 Este 0 -- -- 27
2020-05-08 13:00:00 23.8 12 Este 30 Sudeste 0 -- -- 31
2020-05-08 12:00:00 22.5 10 Sudeste 31 Este 0 -- -- 38
2020-05-08 11:00:00 21.9 14 Este 27 Este 0 -- -- 46
2020-05-08 10:00:00 19 4 Sudeste 12 Sudeste 0 -- -- 56
2020-05-08 09:00:00 15.2 4 Sur 8 Sur 0 -- -- 75
2020-05-08 08:00:00 11.8 3 Sudeste 8 Sudeste 0 -- -- 83
2020-05-08 07:00:00 11.8 0 Calma 10 Sudeste 0 -- -- 80
2020-05-08 06:00:00 12.6 0 Calma 6 Este 0 -- -- 77
2020-05-08 05:00:00 12.7 4 Sudeste 6 Este 0 -- -- 78
2020-05-08 04:00:00 13.9 3 Sudeste 13 Este 0 -- -- 72
2020-05-08 03:00:00 15.5 2 Sudeste 12 Sudeste 0 -- -- 61
2020-05-08 02:00:00 16.7 5 Sudeste 13 Sur 0 -- -- 62
2020-05-08 01:00:00 18 5 Sudeste 14 Sudeste 0 -- -- 57
2020-05-08 00:00:00 18.5 5 Sudeste 31 Este 0 -- -- 56
2020-05-07 23:00:00 19.3 5 Sudeste 20 Sudeste 0 -- -- 56
2020-05-07 22:00:00 19.6 7 Este 20 Sudeste 0 -- -- 53
2020-05-07 21:00:00 20.8 9 Este 19 Sudeste 0 -- -- 48
2020-05-07 20:00:00 23.5 7 Sudeste 19 Sudeste 0 -- -- 40
2020-05-07 19:00:00 25.7 6 Sudeste 19 Sudeste 0 -- -- 33
2020-05-07 18:00:00 26 12 Este 15 Este 0 -- -- 35
2020-05-07 17:00:00 25.7 10 Sudeste 14 Sudeste 0 -- -- 38
2020-05-07 16:00:00 25.1 6 Sudeste 17 Sudoeste 0 -- -- 39
2020-05-07 15:00:00 24 12 Sudoeste 22 Sur 0 -- -- 40
2020-05-07 14:00:00 25.3 10 Este 15 Este 0 -- -- 38
2020-05-07 13:00:00 25.3 7 Este 14 Este 0 -- -- 33
2020-05-07 12:00:00 24.2 8 Este 14 Este 0 -- -- 33
2020-05-07 11:00:00 21.1 0 Calma 6 Sudeste 0 -- -- 48
2020-05-07 10:00:00 17.2 0 Calma 7 Noroeste 0 -- -- 69
2020-05-07 09:00:00 13.4 0 Calma 4 Sur 0 -- -- 83
2020-05-07 08:00:00 10.2 0 Calma 5 Este 0 -- -- 92
2020-05-07 07:00:00 9.9 2 Sudeste 6 Este 0 -- -- 90
2020-05-07 06:00:00 10 0 Calma 4 Sudeste 0 -- -- 90
2020-05-07 05:00:00 10.5 0 Calma 5 Sur 0 -- -- 88
2020-05-07 04:00:00 11.2 3 Sudeste 5 Sudeste 0 -- -- 86
2020-05-07 03:00:00 12 2 Sudeste 6 Sur 0 -- -- 84
2020-05-07 02:00:00 12.8 0 Calma 8 Sudeste 0 -- -- 80
2020-05-07 01:00:00 13.5 2 Sudeste 6 Este 0 -- -- 77
2020-05-07 00:00:00 14.3 0 Calma 8 Este 0 -- -- 74
2020-05-06 23:00:00 15.4 4 Nordeste 8 Este 0 -- -- 73
2020-05-06 22:00:00 17.5 6 Sudeste 8 Este 0 -- -- 63
2020-05-06 21:00:00 21.7 0 Calma 17 Oeste 0 -- -- 42
2020-05-06 20:00:00 24.3 9 Sudoeste 18 Oeste 0 -- -- 35
2020-05-06 19:00:00 25 10 Oeste 26 Sudoeste 0 -- -- 30
2020-05-06 18:00:00 25.8 11 Sudoeste 14 Oeste 0 -- -- 30
2020-05-06 17:00:00 25.6 10 Noroeste 13 Norte 0 -- -- 27
2020-05-06 16:00:00 25.3 9 Oeste 14 Sudoeste 0 -- -- 28
2020-05-06 15:00:00 24.7 12 Oeste 14 Oeste 0 -- -- 30
2020-05-06 14:00:00 24.1 6 Noroeste 13 Noroeste 0 -- -- 31
2020-05-06 13:00:00 23.6 6 Sur 13 Sudeste 0 -- -- 26
2020-05-06 12:00:00 21.9 4 Sudeste 8 Este 0 -- -- 38
2020-05-06 11:00:00 18.2 3 Este 8 Este 0 -- -- 48
2020-05-06 10:00:00 13.9 4 Nordeste 7 Nordeste 0 -- -- 63
2020-05-06 09:00:00 9.7 2 Este 5 Nordeste 0 -- -- 86
2020-05-06 08:00:00 6.8 0 Calma 5 Oeste 0 -- -- 91
2020-05-06 07:00:00 6.5 3 Sudoeste 7 Sudoeste 0 -- -- 90
2020-05-06 06:00:00 7 0 Calma 8 Sudoeste 0 -- -- 90
2020-05-06 05:00:00 7.6 0 Calma 5 Sudoeste 0 -- -- 89
2020-05-06 04:00:00 8 2 Este 6 Este 0 -- -- 88
2020-05-06 03:00:00 9.1 2 Sur 5 Sudoeste 0 -- -- 85
2020-05-06 02:00:00 10 0 Calma 8 Este 0 -- -- 82
2020-05-06 01:00:00 10.8 3 Este 7 Sudeste 0 -- -- 82
2020-05-06 00:00:00 11.5 4 Este 8 Este 0 -- -- 82
2020-05-05 23:00:00 13.2 3 Este 7 Sudeste 0 -- -- 75
2020-05-05 22:00:00 15.9 4 Sur 10 Oeste 0 -- -- 61
2020-05-05 21:00:00 18.4 5 Este 12 Oeste 0 -- -- 65
2020-05-05 20:00:00 21.5 5 Noroeste 14 Oeste 0 -- -- 49
2020-05-05 19:00:00 22.1 7 Oeste 20 Oeste 0 -- -- 46
2020-05-05 18:00:00 21.9 10 Oeste 21 Sudoeste 0 -- -- 49
2020-05-05 17:00:00 22.2 13 Oeste 22 Oeste 0 -- -- 48
2020-05-05 16:00:00 23.6 14 Oeste 21 Oeste 0 -- -- 40
2020-05-05 15:00:00 23.5 14 Oeste 19 Oeste 0 -- -- 38
2020-05-05 14:00:00 24.2 11 Oeste 15 Oeste 0 -- -- 41
2020-05-05 13:00:00 24.4 8 Sur 13 Sur 0 -- -- 30
2020-05-05 12:00:00 22.5 5 Sudeste 11 Norte 0 -- -- 50
2020-05-05 11:00:00 20.1 5 Este 10 Este 0 -- -- 61
2020-05-05 10:00:00 16.7 3 Nordeste 8 Este 0 -- -- 69
2020-05-05 09:00:00 13.9 2 Nordeste 5 Nordeste 0 -- -- 82
2020-05-05 08:00:00 12.8 2 Este 21 Oeste 0 -- -- 83
2020-05-05 07:00:00 12.1 3 Sur 7 Sur 0 -- -- 84
2020-05-05 06:00:00 13.1 3 Sudeste 6 Sur 0 -- -- 80
2020-05-05 05:00:00 14.3 4 Este 7 Este 0 -- -- 76
2020-05-05 04:00:00 16 3 Sudeste 10 Sur 0 -- -- 66
2020-05-05 03:00:00 18.4 4 Este 16 Sudeste 0 -- -- 54
2020-05-05 02:00:00 19.5 7 Este 15 Sudeste 0 -- -- 51
2020-05-05 01:00:00 20.9 8 Este 27 Este 0 -- -- 45
2020-05-05 00:00:00 19.7 4 Sudeste 13 Sudeste 0 -- -- 56
2020-05-04 23:00:00 19.1 2 Este 9 Sudeste 0 -- -- 60
2020-05-04 22:00:00 21.7 4 Norte 18 Sudeste 0 -- -- 48
2020-05-04 21:00:00 24.3 11 Este 51 Este 0 -- -- 43
2020-05-04 20:00:00 25.2 5 Este 14 Sudeste 0 -- -- 40
2020-05-04 19:00:00 27 9 Este 14 Sudeste 0 -- -- 35
2020-05-04 18:00:00 26.8 4 Sudeste 13 Este 0 -- -- 36
2020-05-04 17:00:00 28.7 8 Este 11 Nordeste 0 -- -- 32
2020-05-04 16:00:00 29.7 7 Este 10 Este 0 -- -- 27
2020-05-04 15:00:00 29.7 7 Este 10 Sudeste 0 -- -- 31
2020-05-04 14:00:00 28.9 7 Este 9 Nordeste 0 -- -- 35
2020-05-04 13:00:00 27.5 5 Sur 10 Sudoeste 0 -- -- 36
2020-05-04 12:00:00 25.9 2 Sudeste 9 Norte 0 -- -- 36
2020-05-04 11:00:00 22.7 2 Nordeste 6 Norte 0 -- -- 45
2020-05-04 10:00:00 17.6 0 Calma 5 Sudeste 0 -- -- 65
2020-05-04 09:00:00 14.2 0 Calma 6 Sudeste 0 -- -- 78
2020-05-04 08:00:00 10.9 2 Sur 7 Sudeste 0 -- -- 89
2020-05-04 07:00:00 10.5 2 Sudeste 9 Sudeste 0 -- -- 88
2020-05-04 06:00:00 10.8 2 Sudeste 6 Sudeste 0 -- -- 89
2020-05-04 05:00:00 11 4 Este 6 Este 0 -- -- 89
2020-05-04 04:00:00 11.1 4 Este 6 Este 0 -- -- 88
2020-05-04 03:00:00 11.6 3 Sudeste 8 Este 0 -- -- 86
2020-05-04 02:00:00 11.6 4 Sudeste 6 Este 0 -- -- 86
2020-05-04 01:00:00 12.7 0 Calma 8 Sudeste 0 -- -- 82
2020-05-04 00:00:00 13.9 0 Calma 6 Sudeste 0 -- -- 78
2020-05-03 23:00:00 15.2 0 Calma 6 Este 0 -- -- 74
2020-05-03 22:00:00 18.2 2 Oeste 15 Noroeste 0 -- -- 61
2020-05-03 21:00:00 21.5 3 Sudeste 14 Oeste 0 -- -- 54
2020-05-03 20:00:00 24.9 9 Oeste 15 Oeste 0 -- -- 38
2020-05-03 19:00:00 26.1 10 Oeste 13 Oeste 0 -- -- 25
2020-05-03 18:00:00 26.1 8 Oeste 12 Oeste 0 -- -- 24
2020-05-03 17:00:00 26 8 Oeste 12 Noroeste 0 -- -- 22
2020-05-03 16:00:00 25.4 10 Oeste 13 Sur 0 -- -- 26
2020-05-03 15:00:00 25 8 Sudeste 12 Sudoeste 0 -- -- 38
2020-05-03 14:00:00 23.4 5 Sudoeste 13 Sur 0 -- -- 38
2020-05-03 13:00:00 22.6 5 Sudeste 13 Sudeste 0 -- -- 38
2020-05-03 12:00:00 20.1 5 Norte 11 Norte 0 -- -- 44
2020-05-03 11:00:00 17.1 4 Este 7 Este 0 -- -- 57
2020-05-03 10:00:00 12.5 0 Calma 6 Norte 0 -- -- 75
2020-05-03 09:00:00 9.2 0 Calma 4 Nordeste 0 -- -- 93
2020-05-03 08:00:00 7 0 Calma 3 Nordeste 0 -- -- 95
2020-05-03 07:00:00 6.8 2 Nordeste 5 Este 0 -- -- 94
2020-05-03 06:00:00 7.4 0 Calma 5 Norte 0 -- -- 94
2020-05-03 05:00:00 7.9 3 Sudeste 6 Sudeste 0 -- -- 92
2020-05-03 04:00:00 9 2 Nordeste 5 Nordeste 0 -- -- 90
2020-05-03 03:00:00 9.7 2 Sudeste 6 Este 0 -- -- 90
2020-05-03 02:00:00 10.8 0 Calma 8 Sudeste 0 -- -- 87
2020-05-03 01:00:00 11.7 2 Sudeste 8 Sur 0 -- -- 85
2020-05-03 00:00:00 13.6 4 Sudoeste 10 Noroeste 0 -- -- 79